createdAt,value
2023-04-10T00:03:02.425Z,10.27
2023-04-10T00:07:06.974Z,10.40
2023-04-10T00:11:10.173Z,10.51
2023-04-10T00:15:13.552Z,10.64
2023-04-10T00:19:17.247Z,10.60
2023-04-10T00:23:20.538Z,10.29
2023-04-10T00:27:23.674Z,10.02
2023-04-10T00:31:27.020Z,10.00
2023-04-10T00:35:30.087Z,10.08
2023-04-10T00:39:33.548Z,10.10
2023-04-10T00:43:37.170Z,10.00
2023-04-10T00:47:41.243Z,9.92
2023-04-10T00:51:44.720Z,9.79
2023-04-10T00:55:49.801Z,9.67
2023-04-10T00:59:53.439Z,9.66
2023-04-10T01:03:57.295Z,9.61
2023-04-10T01:08:18.115Z,9.64
2023-04-10T01:12:21.345Z,9.74
2023-04-10T01:16:31.673Z,9.85
2023-04-10T01:20:39.863Z,10.00
2023-04-10T01:25:14.279Z,10.10
2023-04-10T01:29:21.426Z,10.28
2023-04-10T01:33:32.934Z,10.36
2023-04-10T01:37:43.844Z,10.22
2023-04-10T01:41:51.269Z,9.97
2023-04-10T01:45:55.052Z,9.70
2023-04-10T01:49:59.587Z,9.63
2023-04-10T01:54:06.381Z,9.59
2023-04-10T01:58:11.024Z,9.46
2023-04-10T02:02:14.442Z,9.44
2023-04-10T02:06:42.656Z,9.37
2023-04-10T02:11:03.409Z,9.24
2023-04-10T02:15:08.936Z,8.91
2023-04-10T02:19:13.510Z,8.51
2023-04-10T02:23:17.839Z,8.21
2023-04-10T02:27:30.619Z,8.04
2023-04-10T02:31:33.917Z,7.95
2023-04-10T02:35:39.790Z,7.82
2023-04-10T02:39:43.467Z,7.93
2023-04-10T02:43:47.077Z,7.94
2023-04-10T02:47:51.243Z,8.04
2023-04-10T02:51:54.831Z,7.94
2023-04-10T02:55:58.662Z,7.82
2023-04-10T03:00:03.122Z,7.86
2023-04-10T03:04:06.868Z,7.93
2023-04-10T03:08:10.542Z,7.99
2023-04-10T03:12:13.917Z,7.97
2023-04-10T03:16:20.166Z,7.96
2023-04-10T03:20:23.548Z,7.90
2023-04-10T03:24:27.402Z,7.84
2023-04-10T03:28:33.126Z,7.91
2023-04-10T03:32:36.498Z,8.04
2023-04-10T03:36:40.306Z,8.12
2023-04-10T03:40:43.895Z,8.12
2023-04-10T03:44:47.708Z,8.08
2023-04-10T03:48:53.010Z,8.03
2023-04-10T03:52:56.591Z,7.94
2023-04-10T03:57:01.779Z,7.87
2023-04-10T04:01:05.976Z,7.89
2023-04-10T04:05:09.939Z,7.94
2023-04-10T04:09:13.689Z,7.99
2023-04-10T04:13:17.319Z,7.97
2023-04-10T04:21:51.440Z,7.83
2023-04-10T04:25:57.132Z,7.84
2023-04-10T04:30:08.378Z,7.83
2023-04-10T04:34:12.965Z,7.79
2023-04-10T04:38:20.346Z,7.58
2023-04-10T04:46:50.559Z,6.82
2023-04-10T04:50:57.510Z,6.80
2023-04-10T04:55:08.518Z,6.79
2023-04-10T05:17:15.876Z,7.59
2023-04-10T05:25:58.160Z,7.48
2023-04-10T05:43:10.564Z,7.61
2023-04-10T05:47:17.876Z,7.79
2023-04-10T05:51:23.338Z,7.97
2023-04-10T05:59:37.540Z,8.31
2023-04-10T06:03:47.719Z,8.52
2023-04-10T06:07:56.892Z,8.81
2023-04-10T06:12:01.698Z,9.17
2023-04-10T06:16:06.326Z,9.47
2023-04-10T06:20:10.426Z,9.70
2023-04-10T06:24:16.076Z,9.92
2023-04-10T06:28:19.601Z,10.03
2023-04-10T06:32:23.824Z,10.14
2023-04-10T06:36:27.817Z,10.24
2023-04-10T06:40:31.109Z,10.31
2023-04-10T06:44:36.780Z,10.42
2023-04-10T06:48:39.998Z,10.55
2023-04-10T06:52:45.501Z,10.74
2023-04-10T06:56:49.054Z,10.95
2023-04-10T07:00:52.399Z,10.99
2023-04-10T07:04:56.959Z,10.92
2023-04-10T07:08:59.989Z,10.82
2023-04-10T07:13:03.118Z,10.70
2023-04-10T07:17:06.613Z,10.67
2023-04-10T07:21:14.682Z,10.57
2023-04-10T07:25:18.663Z,10.62
2023-04-10T07:29:22.105Z,10.72
2023-04-10T07:33:28.057Z,10.97
2023-04-10T07:37:31.014Z,11.31
2023-04-10T07:41:33.959Z,11.57
2023-04-10T07:45:37.000Z,11.83
2023-04-10T07:49:40.415Z,12.22
2023-04-10T07:53:43.488Z,12.54
2023-04-10T07:57:47.108Z,12.96
2023-04-10T08:01:50.631Z,13.38
2023-04-10T08:05:53.745Z,13.74
2023-04-10T08:09:57.260Z,13.86
2023-04-10T08:14:02.493Z,13.99
2023-04-10T08:18:05.666Z,14.19
2023-04-10T08:22:09.382Z,14.28
2023-04-10T08:26:12.737Z,14.37
2023-04-10T08:30:15.731Z,14.56
2023-04-10T08:34:18.939Z,14.56
2023-04-10T08:38:23.967Z,14.68
2023-04-10T08:42:27.562Z,14.83
2023-04-10T08:46:36.802Z,15.02
2023-04-10T08:50:46.485Z,15.11
2023-04-10T08:54:56.322Z,15.02
2023-04-10T08:59:01.631Z,15.11
2023-04-10T09:03:08.914Z,15.18
2023-04-10T09:07:12.221Z,15.12
2023-04-10T09:11:15.536Z,15.33
2023-04-10T09:15:18.836Z,15.56
2023-04-10T09:19:32.821Z,15.73
2023-04-10T09:23:36.320Z,15.80
2023-04-10T09:27:40.237Z,15.91
2023-04-10T09:31:44.137Z,15.99
2023-04-10T09:35:50.593Z,16.14
2023-04-10T09:39:54.549Z,16.17
2023-04-10T09:44:21.194Z,15.95
2023-04-10T09:49:01.014Z,15.70
2023-04-10T09:54:23.425Z,15.68
2023-04-10T09:58:29.636Z,15.64
2023-04-10T10:02:51.961Z,15.67
2023-04-10T10:07:28.813Z,15.60
2023-04-10T10:12:31.606Z,15.52
2023-04-10T10:17:33.936Z,15.68
2023-04-10T10:21:44.632Z,15.75
2023-04-10T10:25:52.070Z,15.73
2023-04-10T10:30:01.252Z,15.77
2023-04-10T10:39:18.617Z,15.72
2023-04-10T10:44:14.722Z,15.54
2023-04-10T10:53:29.078Z,15.84
2023-04-10T10:58:28.107Z,16.03
2023-04-10T11:02:42.544Z,16.15
2023-04-10T11:11:25.407Z,16.33
2023-04-10T11:15:53.020Z,16.49
2023-04-10T11:20:40.104Z,16.50
2023-04-10T11:24:52.978Z,16.23
2023-04-10T11:28:57.025Z,16.27
2023-04-10T11:33:01.956Z,16.17
2023-04-10T11:37:07.280Z,15.97
2023-04-10T11:41:11.001Z,15.87
2023-04-10T11:45:29.086Z,15.87
2023-04-10T11:49:34.970Z,15.69
2023-04-10T11:53:48.747Z,15.48
2023-04-10T11:58:10.182Z,15.57
2023-04-10T12:02:28.712Z,15.61
2023-04-10T12:16:49.198Z,15.57
2023-04-10T12:21:44.338Z,15.74
2023-04-10T12:26:43.558Z,15.94
2023-04-10T12:31:33.424Z,16.17
2023-04-10T12:36:12.420Z,16.26
2023-04-10T12:40:42.845Z,16.22
2023-04-10T12:45:05.048Z,16.29
2023-04-10T12:49:32.279Z,16.42
2023-04-10T12:53:54.582Z,16.38
2023-04-10T13:08:26.411Z,16.38
2023-04-10T13:12:48.841Z,16.38
2023-04-10T13:21:46.850Z,16.32
2023-04-10T13:25:56.916Z,16.19
2023-04-10T13:34:58.092Z,16.29
2023-04-10T13:39:18.825Z,16.30
2023-04-10T13:43:45.930Z,16.25
2023-04-10T13:48:37.354Z,16.27
2023-04-10T13:53:13.901Z,16.22
2023-04-10T13:58:28.960Z,16.02
2023-04-10T14:07:15.976Z,16.26
2023-04-10T14:16:36.239Z,16.47
2023-04-10T14:25:49.881Z,16.44
2023-04-10T14:44:48.148Z,16.41
2023-04-10T15:11:42.981Z,16.60
2023-04-10T15:16:02.445Z,16.59
2023-04-10T15:20:19.884Z,16.48
2023-04-10T15:24:22.999Z,16.41
2023-04-10T15:28:28.369Z,16.28
2023-04-10T15:32:31.505Z,16.09
2023-04-10T15:36:34.568Z,16.22
2023-04-10T15:40:37.767Z,16.26
2023-04-10T15:44:40.973Z,16.30
2023-04-10T15:48:46.356Z,16.25
2023-04-10T15:52:50.251Z,16.23
2023-04-10T15:56:53.339Z,16.23
2023-04-10T16:00:57.029Z,16.15
2023-04-10T16:05:00.163Z,16.14
2023-04-10T16:09:06.220Z,16.09
2023-04-10T16:13:13.017Z,16.05
2023-04-10T16:17:16.189Z,16.00
2023-04-10T16:21:21.380Z,15.93
2023-04-10T16:25:27.428Z,15.81
2023-04-10T16:29:30.769Z,15.71
2023-04-10T16:33:33.981Z,15.68
2023-04-10T16:37:37.738Z,15.61
2023-04-10T16:41:41.198Z,15.51
2023-04-10T16:45:44.188Z,15.47
2023-04-10T16:49:47.279Z,15.42
2023-04-10T16:53:50.398Z,15.27
2023-04-10T16:57:53.571Z,15.14
2023-04-10T17:01:56.508Z,15.01
2023-04-10T17:05:59.763Z,14.84
2023-04-10T17:10:03.335Z,14.60
2023-04-10T17:14:07.486Z,14.21
2023-04-10T17:18:11.322Z,13.88
2023-04-10T17:22:17.488Z,13.59
2023-04-10T17:26:23.324Z,13.36
2023-04-10T17:30:26.419Z,13.15
2023-04-10T17:34:29.712Z,12.91
2023-04-10T17:38:32.516Z,12.78
2023-04-10T17:42:35.579Z,12.70
2023-04-10T17:46:38.384Z,12.66
2023-04-10T17:50:44.872Z,12.62
2023-04-10T17:54:49.929Z,12.56
2023-04-10T17:58:55.234Z,12.46
2023-04-10T18:03:13.367Z,12.38
2023-04-10T18:07:16.683Z,12.24
2023-04-10T18:11:20.227Z,11.93
2023-04-10T18:15:23.725Z,11.71
2023-04-10T18:19:29.672Z,11.55
2023-04-10T18:23:34.396Z,11.42
2023-04-10T18:28:13.958Z,11.32
2023-04-10T18:32:19.081Z,11.14
2023-04-10T18:40:40.568Z,10.79
2023-04-10T18:49:01.254Z,10.36
2023-04-10T18:53:04.944Z,10.23
2023-04-10T18:57:10.222Z,10.06
2023-04-10T19:01:13.459Z,9.90
2023-04-10T19:05:17.157Z,9.89
2023-04-10T19:14:06.471Z,9.84
2023-04-10T19:18:13.034Z,9.81
2023-04-10T19:22:19.306Z,9.73
2023-04-10T19:26:23.225Z,9.67
2023-04-10T19:30:26.645Z,9.67
2023-04-10T19:34:30.546Z,9.62
2023-04-10T19:38:33.929Z,9.48
2023-04-10T19:42:38.053Z,9.44
2023-04-10T19:46:41.755Z,9.39
2023-04-10T19:50:45.089Z,9.32
2023-04-10T19:54:48.243Z,9.12
2023-04-10T19:58:51.393Z,9.13
2023-04-10T20:02:54.842Z,9.13
2023-04-10T20:06:58.334Z,9.11
2023-04-10T20:11:02.043Z,9.03
2023-04-10T20:15:05.709Z,8.92
2023-04-10T20:19:08.815Z,8.91
2023-04-10T20:23:12.925Z,8.89
2023-04-10T20:27:16.441Z,8.82
2023-04-10T20:31:19.873Z,8.76
2023-04-10T20:35:23.352Z,8.66
2023-04-10T20:39:26.548Z,8.63
2023-04-10T20:43:29.749Z,8.61
2023-04-10T20:47:32.940Z,8.61
2023-04-10T20:51:37.454Z,8.58
2023-04-10T20:55:40.826Z,8.59
2023-04-10T20:59:45.542Z,8.47
2023-04-10T21:03:48.759Z,8.48
2023-04-10T21:07:51.998Z,8.52
2023-04-10T21:11:55.898Z,8.57
2023-04-10T21:33:33.608Z,8.53
2023-04-10T21:37:41.656Z,8.41
2023-04-10T21:41:47.735Z,8.34
2023-04-10T21:45:51.321Z,8.27
2023-04-10T21:49:54.955Z,8.18
2023-04-10T21:53:58.530Z,8.28
2023-04-10T21:58:01.993Z,8.42
2023-04-10T22:02:05.556Z,8.49
2023-04-10T22:06:09.860Z,8.60
2023-04-10T22:10:18.180Z,8.65
2023-04-10T22:14:22.998Z,8.70
2023-04-10T22:18:28.487Z,8.76
2023-04-10T22:22:32.252Z,8.74
2023-04-10T22:26:35.788Z,8.70
2023-04-10T22:30:43.476Z,8.68
2023-04-10T22:44:07.811Z,8.44
2023-04-10T22:57:03.142Z,8.37
2023-04-10T23:01:08.440Z,8.36
2023-04-10T23:05:11.882Z,8.36
2023-04-10T23:09:16.341Z,8.30
2023-04-10T23:18:06.797Z,8.25
2023-04-10T23:22:41.706Z,8.33
2023-04-10T23:31:32.956Z,8.22
2023-04-10T23:35:38.020Z,8.23
2023-04-10T23:40:12.814Z,8.20
2023-04-10T23:44:20.873Z,8.13
2023-04-10T23:48:42.838Z,8.05
2023-04-10T23:57:46.651Z,7.86
